sensor_id;sensor_type;location;lat;lon;timestamp;temperature;humidity
41262;DHT22;29629;52.532;13.352;2023-02-28T00:00:19;3.40;99.90
41262;DHT22;29629;52.532;13.352;2023-02-28T00:02:47;3.50;99.90
41262;DHT22;29629;52.532;13.352;2023-02-28T00:05:15;3.50;99.90
41262;DHT22;29629;52.532;13.352;2023-02-28T00:07:42;3.50;99.90
41262;DHT22;29629;52.532;13.352;2023-02-28T00:10:10;3.50;99.90
41262;DHT22;29629;52.532;13.352;2023-02-28T00:12:38;3.40;99.90
41262;DHT22;29629;52.532;13.352;2023-02-28T00:15:05;3.50;99.90
41262;DHT22;29629;52.532;13.352;2023-02-28T00:17:32;3.40;99.90
41262;DHT22;29629;52.532;13.352;2023-02-28T00:20:00;3.50;99.90
41262;DHT22;29629;52.532;13.352;2023-02-28T00:22:37;3.50;99.90
41262;DHT22;29629;52.532;13.352;2023-02-28T00:25:05;3.50;99.90
41262;DHT22;29629;52.532;13.352;2023-02-28T00:27:32;3.50;99.90
41262;DHT22;29629;52.532;13.352;2023-02-28T00:29:59;3.50;99.90
41262;DHT22;29629;52.532;13.352;2023-02-28T00:32:26;3.50;99.90
41262;DHT22;29629;52.532;13.352;2023-02-28T00:34:53;3.50;99.90
41262;DHT22;29629;52.532;13.352;2023-02-28T00:37:21;3.50;99.90
41262;DHT22;29629;52.532;13.352;2023-02-28T00:39:47;3.50;99.90
41262;DHT22;29629;52.532;13.352;2023-02-28T00:42:14;3.50;99.90
41262;DHT22;29629;52.532;13.352;2023-02-28T00:44:41;3.50;99.90
41262;DHT22;29629;52.532;13.352;2023-02-28T00:47:07;3.50;99.90
41262;DHT22;29629;52.532;13.352;2023-02-28T00:49:34;3.50;99.90
41262;DHT22;29629;52.532;13.352;2023-02-28T00:52:01;3.50;99.90
41262;DHT22;29629;52.532;13.352;2023-02-28T00:54:29;3.50;99.90
41262;DHT22;29629;52.532;13.352;2023-02-28T00:56:56;3.50;99.90
41262;DHT22;29629;52.532;13.352;2023-02-28T00:59:22;3.50;99.90
41262;DHT22;29629;52.532;13.352;2023-02-28T01:01:49;3.50;99.90
41262;DHT22;29629;52.532;13.352;2023-02-28T01:04:16;3.50;99.90
41262;DHT22;29629;52.532;13.352;2023-02-28T01:06:43;3.50;99.90
41262;DHT22;29629;52.532;13.352;2023-02-28T01:09:10;3.50;99.90
41262;DHT22;29629;52.532;13.352;2023-02-28T01:11:38;3.50;99.90
41262;DHT22;29629;52.532;13.352;2023-02-28T01:14:06;3.50;99.90
41262;DHT22;29629;52.532;13.352;2023-02-28T01:16:33;3.50;99.90
41262;DHT22;29629;52.532;13.352;2023-02-28T01:19:00;3.40;99.90
41262;DHT22;29629;52.532;13.352;2023-02-28T01:21:27;3.50;99.90
41262;DHT22;29629;52.532;13.352;2023-02-28T01:23:55;3.50;99.90
41262;DHT22;29629;52.532;13.352;2023-02-28T01:26:22;3.40;99.90
41262;DHT22;29629;52.532;13.352;2023-02-28T01:28:51;3.40;99.90
41262;DHT22;29629;52.532;13.352;2023-02-28T01:31:18;3.40;99.90
41262;DHT22;29629;52.532;13.352;2023-02-28T01:33:45;3.40;99.90
41262;DHT22;29629;52.532;13.352;2023-02-28T01:36:12;3.40;99.90
41262;DHT22;29629;52.532;13.352;2023-02-28T01:38:39;3.40;99.90
41262;DHT22;29629;52.532;13.352;2023-02-28T01:41:07;3.40;99.90
41262;DHT22;29629;52.532;13.352;2023-02-28T01:46:16;3.30;99.90
41262;DHT22;29629;52.532;13.352;2023-02-28T01:48:45;3.30;99.90
41262;DHT22;29629;52.532;13.352;2023-02-28T01:51:14;3.30;99.90
41262;DHT22;29629;52.532;13.352;2023-02-28T01:53:43;3.30;99.90
41262;DHT22;29629;52.532;13.352;2023-02-28T01:56:12;3.30;99.90
41262;DHT22;29629;52.532;13.352;2023-02-28T01:58:45;3.30;99.90
41262;DHT22;29629;52.532;13.352;2023-02-28T02:01:12;3.20;99.90
41262;DHT22;29629;52.532;13.352;2023-02-28T02:03:47;3.30;99.90
41262;DHT22;29629;52.532;13.352;2023-02-28T02:06:20;3.30;99.90
41262;DHT22;29629;52.532;13.352;2023-02-28T02:08:47;3.20;99.90
41262;DHT22;29629;52.532;13.352;2023-02-28T02:11:14;3.20;99.90
41262;DHT22;29629;52.532;13.352;2023-02-28T02:13:51;3.10;99.90
41262;DHT22;29629;52.532;13.352;2023-02-28T02:16:33;3.10;99.90
41262;DHT22;29629;52.532;13.352;2023-02-28T02:19:04;3.10;99.90
41262;DHT22;29629;52.532;13.352;2023-02-28T02:27:14;2.80;99.90
41262;DHT22;29629;52.532;13.352;2023-02-28T02:32:38;2.80;99.90
41262;DHT22;29629;52.532;13.352;2023-02-28T02:35:13;2.70;99.90
41262;DHT22;29629;52.532;13.352;2023-02-28T02:37:42;2.60;99.90
41262;DHT22;29629;52.532;13.352;2023-02-28T02:40:11;2.60;99.90
41262;DHT22;29629;52.532;13.352;2023-02-28T02:42:40;2.60;99.90
41262;DHT22;29629;52.532;13.352;2023-02-28T02:45:09;2.50;99.90
41262;DHT22;29629;52.532;13.352;2023-02-28T02:47:38;2.50;99.90
41262;DHT22;29629;52.532;13.352;2023-02-28T02:50:06;2.50;99.90
41262;DHT22;29629;52.532;13.352;2023-02-28T02:52:36;2.50;99.90
41262;DHT22;29629;52.532;13.352;2023-02-28T02:55:05;2.60;99.90
41262;DHT22;29629;52.532;13.352;2023-02-28T02:57:33;2.50;99.90
41262;DHT22;29629;52.532;13.352;2023-02-28T03:00:02;2.50;99.90
41262;DHT22;29629;52.532;13.352;2023-02-28T03:02:30;2.50;99.90
41262;DHT22;29629;52.532;13.352;2023-02-28T03:04:59;2.40;99.90
41262;DHT22;29629;52.532;13.352;2023-02-28T03:07:27;2.40;99.90
41262;DHT22;29629;52.532;13.352;2023-02-28T03:09:56;2.40;99.90
41262;DHT22;29629;52.532;13.352;2023-02-28T03:12:23;2.30;99.90
41262;DHT22;29629;52.532;13.352;2023-02-28T03:14:55;2.30;99.90
41262;DHT22;29629;52.532;13.352;2023-02-28T03:17:31;2.30;99.90
41262;DHT22;29629;52.532;13.352;2023-02-28T03:20:04;2.30;99.90
41262;DHT22;29629;52.532;13.352;2023-02-28T03:22:38;2.30;99.90
41262;DHT22;29629;52.532;13.352;2023-02-28T03:25:08;2.30;99.90
41262;DHT22;29629;52.532;13.352;2023-02-28T03:27:39;2.30;99.90
41262;DHT22;29629;52.532;13.352;2023-02-28T03:30:09;2.30;99.90
41262;DHT22;29629;52.532;13.352;2023-02-28T03:32:36;2.30;99.90
41262;DHT22;29629;52.532;13.352;2023-02-28T03:35:06;2.20;99.90
41262;DHT22;29629;52.532;13.352;2023-02-28T03:37:35;2.20;99.90
41262;DHT22;29629;52.532;13.352;2023-02-28T03:40:04;2.20;99.90
41262;DHT22;29629;52.532;13.352;2023-02-28T03:42:35;2.20;99.90
41262;DHT22;29629;52.532;13.352;2023-02-28T03:45:04;2.10;99.90
41262;DHT22;29629;52.532;13.352;2023-02-28T03:47:33;2.10;99.90
41262;DHT22;29629;52.532;13.352;2023-02-28T03:50:03;2.10;99.90
41262;DHT22;29629;52.532;13.352;2023-02-28T03:52:33;2.00;99.90
41262;DHT22;29629;52.532;13.352;2023-02-28T03:55:01;1.90;99.90
41262;DHT22;29629;52.532;13.352;2023-02-28T03:57:32;1.90;99.90
41262;DHT22;29629;52.532;13.352;2023-02-28T04:00:03;2.00;99.90
41262;DHT22;29629;52.532;13.352;2023-02-28T04:02:31;1.90;99.90
41262;DHT22;29629;52.532;13.352;2023-02-28T04:04:57;1.80;99.90
41262;DHT22;29629;52.532;13.352;2023-02-28T04:07:28;1.80;99.90
41262;DHT22;29629;52.532;13.352;2023-02-28T04:09:55;1.80;99.90
41262;DHT22;29629;52.532;13.352;2023-02-28T04:12:22;1.70;99.90
41262;DHT22;29629;52.532;13.352;2023-02-28T04:14:49;1.80;99.90
41262;DHT22;29629;52.532;13.352;2023-02-28T04:17:17;1.80;99.90
41262;DHT22;29629;52.532;13.352;2023-02-28T04:19:44;1.80;99.90
41262;DHT22;29629;52.532;13.352;2023-02-28T04:22:11;1.80;99.90
41262;DHT22;29629;52.532;13.352;2023-02-28T04:24:38;1.70;99.90
41262;DHT22;29629;52.532;13.352;2023-02-28T04:27:07;1.70;99.90
41262;DHT22;29629;52.532;13.352;2023-02-28T04:29:34;1.70;99.90
41262;DHT22;29629;52.532;13.352;2023-02-28T04:32:01;1.70;99.90
41262;DHT22;29629;52.532;13.352;2023-02-28T04:34:30;1.80;99.90
41262;DHT22;29629;52.532;13.352;2023-02-28T04:36:57;1.80;99.90
41262;DHT22;29629;52.532;13.352;2023-02-28T04:39:25;1.80;99.90
41262;DHT22;29629;52.532;13.352;2023-02-28T04:41:52;1.70;99.90
41262;DHT22;29629;52.532;13.352;2023-02-28T04:44:19;1.70;99.90
41262;DHT22;29629;52.532;13.352;2023-02-28T04:46:47;1.60;99.90
41262;DHT22;29629;52.532;13.352;2023-02-28T04:49:14;1.70;99.90
41262;DHT22;29629;52.532;13.352;2023-02-28T04:51:42;1.60;99.90
41262;DHT22;29629;52.532;13.352;2023-02-28T04:54:09;1.60;99.90
41262;DHT22;29629;52.532;13.352;2023-02-28T04:56:35;1.50;99.90
41262;DHT22;29629;52.532;13.352;2023-02-28T04:59:02;1.50;99.90
41262;DHT22;29629;52.532;13.352;2023-02-28T05:01:30;1.40;99.90
41262;DHT22;29629;52.532;13.352;2023-02-28T05:03:58;1.40;99.90
41262;DHT22;29629;52.532;13.352;2023-02-28T05:06:25;1.50;99.90
41262;DHT22;29629;52.532;13.352;2023-02-28T05:08:56;1.50;99.90
41262;DHT22;29629;52.532;13.352;2023-02-28T05:11:24;1.50;99.90
41262;DHT22;29629;52.532;13.352;2023-02-28T05:13:51;1.60;99.90
41262;DHT22;29629;52.532;13.352;2023-02-28T05:16:19;1.50;99.90
41262;DHT22;29629;52.532;13.352;2023-02-28T05:18:46;1.50;99.90
41262;DHT22;29629;52.532;13.352;2023-02-28T05:21:26;1.50;99.90
41262;DHT22;29629;52.532;13.352;2023-02-28T05:23:54;1.50;99.90
41262;DHT22;29629;52.532;13.352;2023-02-28T05:26:22;1.40;99.90
41262;DHT22;29629;52.532;13.352;2023-02-28T05:28:50;1.50;99.90
41262;DHT22;29629;52.532;13.352;2023-02-28T05:31:16;1.50;99.90
41262;DHT22;29629;52.532;13.352;2023-02-28T05:33:43;1.40;99.90
41262;DHT22;29629;52.532;13.352;2023-02-28T05:36:10;1.50;99.90
41262;DHT22;29629;52.532;13.352;2023-02-28T05:38:37;1.50;99.90
41262;DHT22;29629;52.532;13.352;2023-02-28T05:41:05;1.50;99.90
41262;DHT22;29629;52.532;13.352;2023-02-28T05:43:33;1.40;99.90
41262;DHT22;29629;52.532;13.352;2023-02-28T05:46:01;1.40;99.90
41262;DHT22;29629;52.532;13.352;2023-02-28T05:48:28;1.50;99.90
41262;DHT22;29629;52.532;13.352;2023-02-28T05:50:56;1.50;99.90
41262;DHT22;29629;52.532;13.352;2023-02-28T05:53:23;1.40;99.90
41262;DHT22;29629;52.532;13.352;2023-02-28T05:55:50;1.40;99.90
41262;DHT22;29629;52.532;13.352;2023-02-28T05:58:17;1.40;99.90
41262;DHT22;29629;52.532;13.352;2023-02-28T06:00:45;1.40;99.90
41262;DHT22;29629;52.532;13.352;2023-02-28T06:03:12;1.40;99.90
41262;DHT22;29629;52.532;13.352;2023-02-28T06:05:38;1.40;99.90
41262;DHT22;29629;52.532;13.352;2023-02-28T06:08:05;1.40;99.90
41262;DHT22;29629;52.532;13.352;2023-02-28T06:10:32;1.40;99.90
41262;DHT22;29629;52.532;13.352;2023-02-28T06:12:59;1.40;99.90
41262;DHT22;29629;52.532;13.352;2023-02-28T06:15:26;1.50;99.90
41262;DHT22;29629;52.532;13.352;2023-02-28T06:17:54;1.50;99.90
41262;DHT22;29629;52.532;13.352;2023-02-28T06:20:22;1.40;99.90
41262;DHT22;29629;52.532;13.352;2023-02-28T06:22:49;1.40;99.90
41262;DHT22;29629;52.532;13.352;2023-02-28T06:25:17;1.40;99.90
41262;DHT22;29629;52.532;13.352;2023-02-28T06:27:44;1.50;99.90
41262;DHT22;29629;52.532;13.352;2023-02-28T06:30:11;1.40;99.90
41262;DHT22;29629;52.532;13.352;2023-02-28T06:32:38;1.50;99.90
41262;DHT22;29629;52.532;13.352;2023-02-28T06:35:06;1.50;99.90
41262;DHT22;29629;52.532;13.352;2023-02-28T06:37:33;1.50;99.90
41262;DHT22;29629;52.532;13.352;2023-02-28T06:40:00;1.60;99.90
41262;DHT22;29629;52.532;13.352;2023-02-28T06:42:27;1.70;99.90
41262;DHT22;29629;52.532;13.352;2023-02-28T06:44:56;1.70;99.90
41262;DHT22;29629;52.532;13.352;2023-02-28T06:47:22;1.90;99.90
41262;DHT22;29629;52.532;13.352;2023-02-28T06:49:50;1.90;99.90
41262;DHT22;29629;52.532;13.352;2023-02-28T06:52:18;1.90;99.90
41262;DHT22;29629;52.532;13.352;2023-02-28T06:54:44;2.10;99.90
41262;DHT22;29629;52.532;13.352;2023-02-28T06:57:11;2.00;99.90
41262;DHT22;29629;52.532;13.352;2023-02-28T06:59:38;2.10;99.90
41262;DHT22;29629;52.532;13.352;2023-02-28T07:02:04;2.40;99.90
41262;DHT22;29629;52.532;13.352;2023-02-28T07:04:32;2.40;99.90
41262;DHT22;29629;52.532;13.352;2023-02-28T07:06:59;2.50;99.90
41262;DHT22;29629;52.532;13.352;2023-02-28T07:09:27;2.60;99.90
41262;DHT22;29629;52.532;13.352;2023-02-28T07:11:55;2.70;99.90
41262;DHT22;29629;52.532;13.352;2023-02-28T07:14:22;2.80;99.90
41262;DHT22;29629;52.532;13.352;2023-02-28T07:16:48;2.90;99.90
41262;DHT22;29629;52.532;13.352;2023-02-28T07:19:15;3.00;99.90
41262;DHT22;29629;52.532;13.352;2023-02-28T07:21:42;3.20;99.90
41262;DHT22;29629;52.532;13.352;2023-02-28T07:24:09;3.30;99.90
41262;DHT22;29629;52.532;13.352;2023-02-28T07:26:37;3.40;99.90
41262;DHT22;29629;52.532;13.352;2023-02-28T07:29:03;3.50;99.90
41262;DHT22;29629;52.532;13.352;2023-02-28T07:31:30;3.60;99.90
41262;DHT22;29629;52.532;13.352;2023-02-28T07:33:57;3.70;99.90
41262;DHT22;29629;52.532;13.352;2023-02-28T07:36:23;3.80;99.90
41262;DHT22;29629;52.532;13.352;2023-02-28T07:38:50;3.80;99.90
41262;DHT22;29629;52.532;13.352;2023-02-28T07:41:17;4.00;99.90
41262;DHT22;29629;52.532;13.352;2023-02-28T07:43:45;4.00;99.90
41262;DHT22;29629;52.532;13.352;2023-02-28T07:46:13;4.10;99.90
41262;DHT22;29629;52.532;13.352;2023-02-28T07:48:41;4.20;99.90
41262;DHT22;29629;52.532;13.352;2023-02-28T07:51:08;4.40;99.90
41262;DHT22;29629;52.532;13.352;2023-02-28T07:53:35;4.40;99.90
41262;DHT22;29629;52.532;13.352;2023-02-28T07:56:01;4.70;99.90
41262;DHT22;29629;52.532;13.352;2023-02-28T07:58:29;4.90;99.90
41262;DHT22;29629;52.532;13.352;2023-02-28T08:00:57;4.90;99.90
41262;DHT22;29629;52.532;13.352;2023-02-28T08:03:30;5.00;99.90
41262;DHT22;29629;52.532;13.352;2023-02-28T08:05:57;5.20;99.90
41262;DHT22;29629;52.532;13.352;2023-02-28T08:08:24;5.30;99.90
41262;DHT22;29629;52.532;13.352;2023-02-28T08:10:57;5.40;99.90
41262;DHT22;29629;52.532;13.352;2023-02-28T08:13:25;5.50;99.90
41262;DHT22;29629;52.532;13.352;2023-02-28T08:15:52;5.70;99.90
41262;DHT22;29629;52.532;13.352;2023-02-28T08:18:20;5.80;99.90
41262;DHT22;29629;52.532;13.352;2023-02-28T08:20:47;5.90;99.90
41262;DHT22;29629;52.532;13.352;2023-02-28T08:23:14;5.70;99.90
41262;DHT22;29629;52.532;13.352;2023-02-28T08:25:41;5.70;99.90
41262;DHT22;29629;52.532;13.352;2023-02-28T08:28:08;5.90;99.90
41262;DHT22;29629;52.532;13.352;2023-02-28T08:30:34;6.00;99.90
41262;DHT22;29629;52.532;13.352;2023-02-28T08:33:01;6.20;99.90
41262;DHT22;29629;52.532;13.352;2023-02-28T08:35:29;6.20;99.90
41262;DHT22;29629;52.532;13.352;2023-02-28T08:37:56;6.30;99.90
41262;DHT22;29629;52.532;13.352;2023-02-28T08:40:23;6.30;99.90
41262;DHT22;29629;52.532;13.352;2023-02-28T08:42:50;6.40;99.90
41262;DHT22;29629;52.532;13.352;2023-02-28T08:45:16;6.30;99.90
41262;DHT22;29629;52.532;13.352;2023-02-28T08:47:43;6.30;99.90
41262;DHT22;29629;52.532;13.352;2023-02-28T08:50:10;6.50;99.90
41262;DHT22;29629;52.532;13.352;2023-02-28T08:52:43;6.60;99.90
41262;DHT22;29629;52.532;13.352;2023-02-28T08:55:10;6.60;99.90
41262;DHT22;29629;52.532;13.352;2023-02-28T08:57:36;6.90;99.90
41262;DHT22;29629;52.532;13.352;2023-02-28T09:00:04;7.10;99.90
41262;DHT22;29629;52.532;13.352;2023-02-28T09:02:31;7.10;99.90
41262;DHT22;29629;52.532;13.352;2023-02-28T09:04:58;7.10;99.90
41262;DHT22;29629;52.532;13.352;2023-02-28T09:07:24;7.30;99.90
41262;DHT22;29629;52.532;13.352;2023-02-28T09:09:52;7.70;99.90
41262;DHT22;29629;52.532;13.352;2023-02-28T09:12:23;8.20;99.90
41262;DHT22;29629;52.532;13.352;2023-02-28T09:14:50;8.70;99.90
41262;DHT22;29629;52.532;13.352;2023-02-28T09:17:17;8.80;99.90
41262;DHT22;29629;52.532;13.352;2023-02-28T09:19:44;13.00;99.90
41262;DHT22;29629;52.532;13.352;2023-02-28T09:22:11;15.10;95.90
41262;DHT22;29629;52.532;13.352;2023-02-28T09:24:38;16.30;92.60
41262;DHT22;29629;52.532;13.352;2023-02-28T09:27:06;17.00;90.00
41262;DHT22;29629;52.532;13.352;2023-02-28T09:29:33;17.50;84.30
41262;DHT22;29629;52.532;13.352;2023-02-28T09:32:00;17.90;80.10
41262;DHT22;29629;52.532;13.352;2023-02-28T09:34:27;18.40;79.30
41262;DHT22;29629;52.532;13.352;2023-02-28T09:36:56;18.40;77.30
41262;DHT22;29629;52.532;13.352;2023-02-28T09:39:23;17.50;74.40
41262;DHT22;29629;52.532;13.352;2023-02-28T09:41:52;17.80;77.80
41262;DHT22;29629;52.532;13.352;2023-02-28T09:44:22;18.60;74.40
41262;DHT22;29629;52.532;13.352;2023-02-28T09:46:52;19.10;74.20
41262;DHT22;29629;52.532;13.352;2023-02-28T09:49:22;19.30;74.40
41262;DHT22;29629;52.532;13.352;2023-02-28T09:51:50;19.30;74.10
41262;DHT22;29629;52.532;13.352;2023-02-28T09:54:21;19.30;73.40
41262;DHT22;29629;52.532;13.352;2023-02-28T09:56:49;19.20;72.40
41262;DHT22;29629;52.532;13.352;2023-02-28T09:59:22;19.20;71.90
41262;DHT22;29629;52.532;13.352;2023-02-28T10:01:54;19.00;71.70
41262;DHT22;29629;52.532;13.352;2023-02-28T10:04:30;19.30;72.60
41262;DHT22;29629;52.532;13.352;2023-02-28T10:07:01;19.60;70.10
41262;DHT22;29629;52.532;13.352;2023-02-28T10:09:30;19.40;70.30
41262;DHT22;29629;52.532;13.352;2023-02-28T10:11:59;19.20;69.90
41262;DHT22;29629;52.532;13.352;2023-02-28T10:14:27;19.10;70.90
41262;DHT22;29629;52.532;13.352;2023-02-28T10:16:56;17.60;72.90
41262;DHT22;29629;52.532;13.352;2023-02-28T10:19:26;17.50;75.90
41262;DHT22;29629;52.532;13.352;2023-02-28T10:21:59;16.20;76.80
41262;DHT22;29629;52.532;13.352;2023-02-28T10:24:27;15.00;75.00
41262;DHT22;29629;52.532;13.352;2023-02-28T10:26:56;14.50;78.60
41262;DHT22;29629;52.532;13.352;2023-02-28T10:29:25;14.80;79.40
41262;DHT22;29629;52.532;13.352;2023-02-28T10:31:52;14.80;77.40
41262;DHT22;29629;52.532;13.352;2023-02-28T10:34:20;15.00;81.00
41262;DHT22;29629;52.532;13.352;2023-02-28T10:36:47;15.30;79.60
41262;DHT22;29629;52.532;13.352;2023-02-28T10:39:34;15.40;80.00
41262;DHT22;29629;52.532;13.352;2023-02-28T10:42:01;15.80;80.80
41262;DHT22;29629;52.532;13.352;2023-02-28T10:44:28;15.60;80.80
41262;DHT22;29629;52.532;13.352;2023-02-28T10:46:55;15.60;80.60
41262;DHT22;29629;52.532;13.352;2023-02-28T10:49:25;15.50;76.80
41262;DHT22;29629;52.532;13.352;2023-02-28T10:51:55;15.30;80.50
41262;DHT22;29629;52.532;13.352;2023-02-28T10:54:24;15.80;81.10
41262;DHT22;29629;52.532;13.352;2023-02-28T10:57:06;15.70;81.40
41262;DHT22;29629;52.532;13.352;2023-02-28T10:59:33;16.30;79.10
41262;DHT22;29629;52.532;13.352;2023-02-28T11:02:00;17.00;77.00
41262;DHT22;29629;52.532;13.352;2023-02-28T11:04:35;17.60;77.70
41262;DHT22;29629;52.532;13.352;2023-02-28T11:07:05;18.10;77.60
41262;DHT22;29629;52.532;13.352;2023-02-28T11:09:33;17.90;74.10
41262;DHT22;29629;52.532;13.352;2023-02-28T11:12:01;17.50;75.50
41262;DHT22;29629;52.532;13.352;2023-02-28T11:14:29;17.30;75.20
41262;DHT22;29629;52.532;13.352;2023-02-28T11:16:57;16.70;76.60
41262;DHT22;29629;52.532;13.352;2023-02-28T11:19:25;16.50;78.90
41262;DHT22;29629;52.532;13.352;2023-02-28T11:21:56;16.30;75.90
41262;DHT22;29629;52.532;13.352;2023-02-28T11:24:24;15.70;75.80
41262;DHT22;29629;52.532;13.352;2023-02-28T11:26:53;16.00;76.70
41262;DHT22;29629;52.532;13.352;2023-02-28T11:29:20;16.80;78.10
41262;DHT22;29629;52.532;13.352;2023-02-28T11:32:04;16.90;77.10
41262;DHT22;29629;52.532;13.352;2023-02-28T11:34:31;16.70;79.00
41262;DHT22;29629;52.532;13.352;2023-02-28T11:37:01;16.60;77.70
41262;DHT22;29629;52.532;13.352;2023-02-28T11:39:30;16.60;78.80
41262;DHT22;29629;52.532;13.352;2023-02-28T11:42:00;16.80;75.70
41262;DHT22;29629;52.532;13.352;2023-02-28T11:44:32;17.00;77.10
41262;DHT22;29629;52.532;13.352;2023-02-28T11:47:04;17.40;76.40
41262;DHT22;29629;52.532;13.352;2023-02-28T11:49:35;17.30;77.30
41262;DHT22;29629;52.532;13.352;2023-02-28T11:52:06;17.60;73.90
41262;DHT22;29629;52.532;13.352;2023-02-28T11:57:27;17.50;74.10
41262;DHT22;29629;52.532;13.352;2023-02-28T11:59:59;17.30;76.00
41262;DHT22;29629;52.532;13.352;2023-02-28T12:02:29;17.30;75.90
41262;DHT22;29629;52.532;13.352;2023-02-28T12:05:03;17.80;75.70
41262;DHT22;29629;52.532;13.352;2023-02-28T12:07:39;18.00;76.90
41262;DHT22;29629;52.532;13.352;2023-02-28T12:10:10;18.10;75.90
41262;DHT22;29629;52.532;13.352;2023-02-28T12:12:42;17.90;73.80
41262;DHT22;29629;52.532;13.352;2023-02-28T12:15:21;17.90;73.70
41262;DHT22;29629;52.532;13.352;2023-02-28T12:17:51;17.90;73.60
41262;DHT22;29629;52.532;13.352;2023-02-28T12:20:24;17.90;73.30
41262;DHT22;29629;52.532;13.352;2023-02-28T12:22:55;17.40;75.00
41262;DHT22;29629;52.532;13.352;2023-02-28T12:25:43;17.40;76.50
41262;DHT22;29629;52.532;13.352;2023-02-28T12:28:13;17.30;73.60
41262;DHT22;29629;52.532;13.352;2023-02-28T12:30:41;17.10;73.10
41262;DHT22;29629;52.532;13.352;2023-02-28T12:33:12;17.50;74.00
41262;DHT22;29629;52.532;13.352;2023-02-28T12:35:41;17.00;72.90
41262;DHT22;29629;52.532;13.352;2023-02-28T12:38:12;16.80;72.80
41262;DHT22;29629;52.532;13.352;2023-02-28T12:40:42;16.60;76.10
41262;DHT22;29629;52.532;13.352;2023-02-28T12:43:12;17.00;76.30
41262;DHT22;29629;52.532;13.352;2023-02-28T12:45:40;16.90;73.00
41262;DHT22;29629;52.532;13.352;2023-02-28T12:48:10;17.00;75.80
41262;DHT22;29629;52.532;13.352;2023-02-28T12:50:39;16.70;74.70
41262;DHT22;29629;52.532;13.352;2023-02-28T12:53:06;17.00;74.80
41262;DHT22;29629;52.532;13.352;2023-02-28T12:55:40;16.90;73.80
41262;DHT22;29629;52.532;13.352;2023-02-28T12:58:10;16.70;73.80
41262;DHT22;29629;52.532;13.352;2023-02-28T13:00:43;16.30;71.70
41262;DHT22;29629;52.532;13.352;2023-02-28T13:03:24;16.10;74.30
41262;DHT22;29629;52.532;13.352;2023-02-28T13:05:59;16.30;74.80
41262;DHT22;29629;52.532;13.352;2023-02-28T13:08:43;16.30;72.50
41262;DHT22;29629;52.532;13.352;2023-02-28T13:11:25;16.00;72.30
41262;DHT22;29629;52.532;13.352;2023-02-28T13:13:57;15.80;74.10
41262;DHT22;29629;52.532;13.352;2023-02-28T13:16:23;15.70;74.40
41262;DHT22;29629;52.532;13.352;2023-02-28T13:18:50;15.50;75.30
41262;DHT22;29629;52.532;13.352;2023-02-28T13:21:24;14.70;72.80
41262;DHT22;29629;52.532;13.352;2023-02-28T13:23:59;14.70;76.80
41262;DHT22;29629;52.532;13.352;2023-02-28T13:34:46;13.60;77.40
41262;DHT22;29629;52.532;13.352;2023-02-28T13:37:32;13.30;79.80
41262;DHT22;29629;52.532;13.352;2023-02-28T13:40:06;13.00;79.70
41262;DHT22;29629;52.532;13.352;2023-02-28T13:42:34;12.50;81.30
41262;DHT22;29629;52.532;13.352;2023-02-28T13:47:52;12.10;82.90
41262;DHT22;29629;52.532;13.352;2023-02-28T13:50:31;11.80;83.90
41262;DHT22;29629;52.532;13.352;2023-02-28T13:53:07;11.60;84.40
41262;DHT22;29629;52.532;13.352;2023-02-28T13:55:41;11.50;84.00
41262;DHT22;29629;52.532;13.352;2023-02-28T13:58:12;11.00;85.10
41262;DHT22;29629;52.532;13.352;2023-02-28T14:00:45;11.00;84.10
41262;DHT22;29629;52.532;13.352;2023-02-28T14:06:18;10.30;86.30
41262;DHT22;29629;52.532;13.352;2023-02-28T14:08:51;10.00;87.30
41262;DHT22;29629;52.532;13.352;2023-02-28T14:11:29;10.00;88.20
41262;DHT22;29629;52.532;13.352;2023-02-28T14:13:56;9.90;88.10
41262;DHT22;29629;52.532;13.352;2023-02-28T14:16:24;9.70;89.50
41262;DHT22;29629;52.532;13.352;2023-02-28T14:18:56;9.60;90.50
41262;DHT22;29629;52.532;13.352;2023-02-28T14:21:26;9.50;90.10
41262;DHT22;29629;52.532;13.352;2023-02-28T14:24:03;9.40;90.90
41262;DHT22;29629;52.532;13.352;2023-02-28T14:26:46;9.40;91.00
41262;DHT22;29629;52.532;13.352;2023-02-28T14:29:23;9.30;90.70
41262;DHT22;29629;52.532;13.352;2023-02-28T14:31:58;9.20;90.50
41262;DHT22;29629;52.532;13.352;2023-02-28T14:34:34;8.90;90.30
41262;DHT22;29629;52.532;13.352;2023-02-28T14:37:04;8.80;91.40
41262;DHT22;29629;52.532;13.352;2023-02-28T14:39:33;8.70;91.50
41262;DHT22;29629;52.532;13.352;2023-02-28T14:42:02;8.50;90.90
41262;DHT22;29629;52.532;13.352;2023-02-28T14:44:30;8.50;90.70
41262;DHT22;29629;52.532;13.352;2023-02-28T14:46:57;8.40;91.60
41262;DHT22;29629;52.532;13.352;2023-02-28T14:49:30;8.30;93.30
41262;DHT22;29629;52.532;13.352;2023-02-28T14:52:05;8.30;92.40
41262;DHT22;29629;52.532;13.352;2023-02-28T14:54:34;8.20;93.10
41262;DHT22;29629;52.532;13.352;2023-02-28T14:57:01;8.10;93.40
41262;DHT22;29629;52.532;13.352;2023-02-28T14:59:29;8.20;93.20
41262;DHT22;29629;52.532;13.352;2023-02-28T15:02:19;8.00;94.50
41262;DHT22;29629;52.532;13.352;2023-02-28T15:04:53;8.00;94.40
41262;DHT22;29629;52.532;13.352;2023-02-28T15:07:22;8.00;94.40
41262;DHT22;29629;52.532;13.352;2023-02-28T15:10:10;7.90;95.40
41262;DHT22;29629;52.532;13.352;2023-02-28T15:12:36;7.90;94.90
41262;DHT22;29629;52.532;13.352;2023-02-28T15:15:04;7.80;95.10
41262;DHT22;29629;52.532;13.352;2023-02-28T15:17:33;7.60;94.20
41262;DHT22;29629;52.532;13.352;2023-02-28T15:20:00;7.60;95.40
41262;DHT22;29629;52.532;13.352;2023-02-28T15:22:30;7.60;96.10
41262;DHT22;29629;52.532;13.352;2023-02-28T15:24:58;7.40;95.70
41262;DHT22;29629;52.532;13.352;2023-02-28T15:27:26;7.30;95.50
41262;DHT22;29629;52.532;13.352;2023-02-28T15:29:53;7.30;96.60
41262;DHT22;29629;52.532;13.352;2023-02-28T15:32:24;7.30;96.30
41262;DHT22;29629;52.532;13.352;2023-02-28T15:34:51;7.30;97.20
41262;DHT22;29629;52.532;13.352;2023-02-28T15:37:28;7.20;97.10
41262;DHT22;29629;52.532;13.352;2023-02-28T15:39:57;7.20;96.60
41262;DHT22;29629;52.532;13.352;2023-02-28T15:42:27;7.10;98.20
41262;DHT22;29629;52.532;13.352;2023-02-28T15:44:54;7.10;98.40
41262;DHT22;29629;52.532;13.352;2023-02-28T15:47:23;7.10;98.70
41262;DHT22;29629;52.532;13.352;2023-02-28T15:49:50;7.00;98.10
41262;DHT22;29629;52.532;13.352;2023-02-28T15:52:19;6.90;99.20
41262;DHT22;29629;52.532;13.352;2023-02-28T15:54:46;6.90;99.10
41262;DHT22;29629;52.532;13.352;2023-02-28T15:57:15;6.90;99.20
41262;DHT22;29629;52.532;13.352;2023-02-28T15:59:45;6.90;98.80
41262;DHT22;29629;52.532;13.352;2023-02-28T16:02:15;6.90;99.20
41262;DHT22;29629;52.532;13.352;2023-02-28T16:05:00;6.80;99.90
41262;DHT22;29629;52.532;13.352;2023-02-28T16:07:27;6.80;99.80